Time;durP1;ratioP1;P1;durP2;ratioP2;P2;SDS_P1;SDS_P2;PMS_P1;PMS_P2;Temp;Humidity;BMP_temperature;BMP_pressure;BME280_temperature;BME280_humidity;BME280_pressure;Samples;Min_cycle;Max_cycle;Signal;HPM_P1;HPM_P2
2023/08/12 00:01:27;;;;;;;3.22;0.47;;;;;;;30.22;63.52;99581.63;7392701;19;20114;-84
2023/08/12 00:03:53;;;;;;;0.40;0.40;;;;;;;30.45;62.87;99575.25;7389590;19;20014;-85
2023/08/12 00:06:19;;;;;;;0.35;0.20;;;;;;;30.44;62.76;99568.72;7390828;19;20074;-84
2023/08/12 00:08:46;;;;;;;1.75;0.43;;;;;;;30.32;62.94;99567.94;7388876;19;20025;-85
2023/08/12 00:11:12;;;;;;;0.40;0.40;;;;;;;30.46;62.47;99573.84;7389833;19;20014;-84
2023/08/12 00:13:38;;;;;;;2.17;0.28;;;;;;;30.63;61.94;99562.00;7390605;19;20023;-84
2023/08/12 00:16:04;;;;;;;0.20;0.20;;;;;;;30.51;61.47;99567.00;7391871;19;20022;-84
2023/08/12 00:18:36;;;;;;;1.17;0.25;;;;;;;30.33;61.14;99557.22;7393284;19;20023;-85
2023/08/12 00:21:11;;;;;;;0.20;0.10;;;;;;;30.20;61.56;99549.91;7390524;19;20334;-85
2023/08/12 00:23:40;;;;;;;1.83;0.40;;;;;;;30.16;60.80;99548.88;7389469;19;20034;-84
2023/08/12 00:26:07;;;;;;;1.88;0.85;;;;;;;30.18;60.65;99551.88;7392058;19;20066;-84
2023/08/12 00:28:34;;;;;;;0.13;0.13;;;;;;;30.06;60.43;99551.13;7388208;19;20116;-85
2023/08/12 00:31:00;;;;;;;1.23;0.73;;;;;;;27.72;61.49;99546.16;7389747;19;20015;-84
2023/08/12 00:33:26;;;;;;;0.13;0.13;;;;;;;22.38;100.00;99551.78;7388978;19;20014;-85
2023/08/12 00:35:53;;;;;;;0.55;0.30;;;;;;;18.40;100.00;99555.59;7389821;19;20010;-84
2023/08/12 00:38:19;;;;;;;5.25;0.40;;;;;;;18.66;100.00;99558.53;7390756;19;20550;-85
2023/08/12 00:40:45;;;;;;;0.80;0.20;;;;;;;16.61;100.00;99556.22;7389326;19;20039;-85
2023/08/12 00:43:11;;;;;;;3.05;0.40;;;;;;;23.71;100.00;99547.19;7387059;19;20044;-85
2023/08/12 00:45:38;;;;;;;6.22;1.23;;;;;;;18.75;100.00;99549.66;7392134;19;20022;-85
2023/08/12 00:48:04;;;;;;;0.70;0.40;;;;;;;18.10;100.00;99548.09;7389313;19;20082;-85
2023/08/12 00:50:31;;;;;;;0.17;0.17;;;;;;;15.60;100.00;99560.19;7396301;19;20469;-86
2023/08/12 00:52:58;;;;;;;1.27;0.85;;;;;;;20.45;100.00;99543.81;7397400;19;20022;-85
2023/08/12 00:55:25;;;;;;;0.43;0.25;;;;;;;18.84;100.00;99543.59;7401277;19;20011;-85
2023/08/12 00:57:51;;;;;;;0.73;0.52;;;;;;;16.21;100.00;99542.97;7397137;19;20019;-85
2023/08/12 01:00:20;;;;;;;1.92;0.60;;;;;;;15.18;100.00;99547.28;7396373;19;20468;-85
2023/08/12 01:02:48;;;;;;;5.38;0.45;;;;;;;14.35;100.00;99552.25;7398171;19;20010;-89
2023/08/12 01:05:18;;;;;;;0.47;0.32;;;;;;;17.42;100.00;99543.09;7397718;19;20058;-85
2023/08/12 01:07:46;;;;;;;0.70;0.45;;;;;;;15.48;100.00;99530.66;7394984;19;20022;-84
2023/08/12 01:10:16;;;;;;;5.63;1.05;;;;;;;15.87;100.00;99533.97;7394744;19;20090;-84
2023/08/12 01:12:58;;;;;;;2.05;0.30;;;;;;;15.68;100.00;99524.66;7395234;19;20024;-84
2023/08/12 01:15:26;;;;;;;0.50;0.38;;;;;;;22.40;100.00;99520.75;7395506;19;20013;-84
2023/08/12 01:17:54;;;;;;;0.63;0.13;;;;;;;15.69;100.00;99528.22;7396616;19;20022;-85
2023/08/12 01:20:25;;;;;;;0.70;0.43;;;;;;;14.70;100.00;99535.69;7395895;19;20022;-84
2023/08/12 01:23:07;;;;;;;0.40;0.27;;;;;;;14.41;100.00;99522.97;7394944;19;20018;-84
2023/08/12 01:25:33;;;;;;;5.28;0.63;;;;;;;14.28;100.00;99524.69;7396569;19;20266;-84
2023/08/12 01:27:59;;;;;;;0.80;0.50;;;;;;;14.16;100.00;99515.53;7396169;19;20011;-84
2023/08/12 01:30:27;;;;;;;9.23;0.63;;;;;;;14.11;100.00;99515.53;7395949;19;20017;-84
2023/08/12 01:33:15;;;;;;;1.35;0.60;;;;;;;14.06;100.00;99514.25;7394758;19;20011;-84
2023/08/12 01:35:47;;;;;;;0.30;0.20;;;;;;;14.04;100.00;99505.59;7395639;19;20019;-84
2023/08/12 01:38:15;;;;;;;9.65;1.08;;;;;;;14.06;100.00;99507.88;7396142;19;20027;-84
2023/08/12 01:40:44;;;;;;;0.82;0.43;;;;;;;14.14;100.00;99500.53;7397238;19;20025;-84
2023/08/12 01:43:11;;;;;;;11.93;1.60;;;;;;;15.12;100.00;99487.63;7392902;19;20014;-84
2023/08/12 01:45:38;;;;;;;0.10;0.10;;;;;;;14.81;100.00;99490.78;7399630;19;20022;-84
2023/08/12 01:48:05;;;;;;;0.30;0.30;;;;;;;14.61;100.00;99491.09;7393894;19;20038;-84
2023/08/12 01:50:31;;;;;;;2.25;0.43;;;;;;;14.55;100.00;99493.16;7393712;19;20025;-84
2023/08/12 01:52:58;;;;;;;2.08;0.45;;;;;;;14.52;100.00;99494.16;7396763;19;20014;-84
2023/08/12 01:55:25;;;;;;;0.20;0.20;;;;;;;14.37;100.00;99493.66;7395523;19;20011;-84
2023/08/12 01:57:51;;;;;;;0.95;0.45;;;;;;;14.55;100.00;99493.16;7393941;19;20442;-84
2023/08/12 02:00:18;;;;;;;1.38;0.52;;;;;;;14.64;100.00;99490.06;7392399;19;20021;-84
2023/08/12 02:02:46;;;;;;;1.75;0.22;;;;;;;14.63;100.00;99488.53;7397006;19;20034;-84
2023/08/12 02:05:13;;;;;;;0.50;0.30;;;;;;;14.66;100.00;99486.75;7394711;19;20345;-85
2023/08/12 02:07:40;;;;;;;8.95;0.85;;;;;;;14.68;100.00;99481.41;7393596;19;20028;-83
2023/08/12 02:10:06;;;;;;;1.05;0.30;;;;;;;14.72;100.00;99485.47;7394192;19;20033;-84
2023/08/12 02:12:32;;;;;;;1.45;0.60;;;;;;;14.89;100.00;99477.78;7396884;19;20021;-84
2023/08/12 02:14:58;;;;;;;0.80;0.20;;;;;;;15.30;100.00;99471.50;7394123;19;20019;-84
2023/08/12 02:17:25;;;;;;;2.75;0.70;;;;;;;15.45;100.00;99469.16;7394407;19;20017;-84
2023/08/12 02:19:51;;;;;;;2.35;0.85;;;;;;;17.02;100.00;99462.50;7393299;19;20043;-84
2023/08/12 02:22:17;;;;;;;0.63;0.45;;;;;;;15.94;100.00;99463.22;7392475;19;20010;-83
2023/08/12 02:24:44;;;;;;;0.77;0.52;;;;;;;15.20;100.00;99460.56;7392894;19;20152;-84
2023/08/12 02:27:10;;;;;;;13.65;1.55;;;;;;;15.06;100.00;99458.09;7398094;19;20014;-84
2023/08/12 02:29:36;;;;;;;1.30;0.50;;;;;;;15.00;100.00;99455.31;7395243;19;20021;-85
2023/08/12 02:32:02;;;;;;;0.50;0.35;;;;;;;14.91;100.00;99452.78;7394942;19;20023;-83
2023/08/12 02:34:28;;;;;;;1.20;0.22;;;;;;;14.79;100.00;99454.09;7390775;19;20018;-83
2023/08/12 02:36:54;;;;;;;5.38;0.65;;;;;;;14.66;100.00;99450.31;7394766;19;20081;-84
2023/08/12 02:39:21;;;;;;;1.65;0.55;;;;;;;14.57;100.00;99447.78;7393361;19;20029;-85
2023/08/12 02:41:47;;;;;;;2.75;0.68;;;;;;;14.46;100.00;99439.41;7392085;19;20014;-85
2023/08/12 02:44:13;;;;;;;5.95;1.25;;;;;;;14.32;100.00;99441.19;7392130;19;20020;-84
2023/08/12 02:46:39;;;;;;;1.15;0.40;;;;;;;14.24;100.00;99445.78;7393511;19;20074;-84
2023/08/12 02:49:05;;;;;;;0.88;0.40;;;;;;;14.13;100.00;99442.97;7393378;19;20042;-85
2023/08/12 02:51:31;;;;;;;4.13;0.40;;;;;;;14.08;100.00;99443.72;7394756;19;20038;-85
2023/08/12 02:53:57;;;;;;;7.32;1.25;;;;;;;13.94;100.00;99439.94;7391617;19;20014;-84
2023/08/12 02:56:24;;;;;;;9.93;0.73;;;;;;;13.91;100.00;99445.75;7395674;19;20035;-84
2023/08/12 02:58:50;;;;;;;1.55;1.33;;;;;;;14.02;100.00;99437.38;7393150;19;20085;-85
2023/08/12 03:01:16;;;;;;;4.97;0.85;;;;;;;13.88;100.00;99441.19;7394408;19;20078;-85
2023/08/12 03:03:42;;;;;;;0.75;0.45;;;;;;;14.11;100.00;99437.88;7390282;19;20030;-84
2023/08/12 03:06:08;;;;;;;1.75;0.95;;;;;;;18.05;100.00;99422.13;7396477;19;20011;-84
2023/08/12 03:08:34;;;;;;;2.38;0.63;;;;;;;18.54;100.00;99416.16;7390636;19;20533;-84
2023/08/12 03:11:02;;;;;;;2.28;0.75;;;;;;;18.96;100.00;99426.38;7391765;19;20014;-85
2023/08/12 03:13:30;;;;;;;0.77;0.77;;;;;;;18.84;100.00;99416.63;7392285;19;20077;-84
2023/08/12 03:15:57;;;;;;;1.40;0.85;;;;;;;19.05;100.00;99414.66;7391812;19;20014;-85
2023/08/12 03:18:23;;;;;;;1.88;0.85;;;;;;;19.18;100.00;99423.09;7391924;19;20029;-85
2023/08/12 03:20:50;;;;;;;4.10;0.75;;;;;;;19.22;100.00;99420.69;7392649;19;20019;-85
2023/08/12 03:23:16;;;;;;;3.72;1.58;;;;;;;19.15;100.00;99418.53;7390596;19;20010;-85
2023/08/12 03:25:43;;;;;;;2.33;0.70;;;;;;;19.19;100.00;99410.50;7394519;19;20481;-85
2023/08/12 03:28:09;;;;;;;0.57;0.43;;;;;;;19.29;100.00;99405.94;7391161;19;20014;-85
2023/08/12 03:30:36;;;;;;;3.05;0.57;;;;;;;19.36;100.00;99408.09;7391299;19;20107;-84
2023/08/12 03:33:03;;;;;;;1.35;1.05;;;;;;;19.33;100.00;99405.59;7390594;19;20006;-84
2023/08/12 03:35:32;;;;;;;6.88;0.40;;;;;;;19.44;100.00;99405.38;7390940;19;20481;-85
2023/08/12 03:37:58;;;;;;;3.50;0.77;;;;;;;17.83;100.00;99391.50;7394142;19;20010;-84
2023/08/12 03:40:25;;;;;;;0.52;0.52;;;;;;;15.31;100.00;99394.47;7391446;19;20035;-85
2023/08/12 03:42:51;;;;;;;1.77;1.02;;;;;;;18.53;100.00;99392.09;7391202;19;20465;-84
2023/08/12 03:45:23;;;;;;;4.53;0.77;;;;;;;18.87;100.00;99393.72;7395234;19;20020;-85
2023/08/12 03:47:50;;;;;;;4.03;0.98;;;;;;;19.43;100.00;99387.66;7390144;19;20047;-85
2023/08/12 03:50:16;;;;;;;0.85;0.82;;;;;;;19.35;100.00;99386.81;7394430;19;20010;-85
2023/08/12 03:52:43;;;;;;;12.30;1.48;;;;;;;19.72;100.00;99379.28;7391152;19;20024;-84
2023/08/12 03:55:10;;;;;;;4.45;0.50;;;;;;;19.84;100.00;99389.03;7390449;19;20374;-85
2023/08/12 03:57:37;;;;;;;4.28;0.65;;;;;;;19.95;100.00;99381.00;7389099;19;20006;-84
2023/08/12 04:00:07;;;;;;;2.20;0.52;;;;;;;20.01;100.00;99386.56;7389909;19;20011;-85
2023/08/12 04:02:40;;;;;;;1.13;0.20;;;;;;;17.14;100.00;99391.47;7393814;19;20473;-84
2023/08/12 04:05:07;;;;;;;0.90;0.43;;;;;;;17.07;100.00;99388.50;7389337;19;20037;-84
2023/08/12 04:07:33;;;;;;;1.75;1.00;;;;;;;15.80;100.00;99376.53;7389429;19;20018;-85
2023/08/12 04:09:59;;;;;;;2.08;0.93;;;;;;;17.07;100.00;99375.19;7389753;19;20039;-85
2023/08/12 04:12:25;;;;;;;0.20;0.20;;;;;;;20.02;100.00;99373.91;7388862;19;20074;-84
2023/08/12 04:14:51;;;;;;;2.88;0.93;;;;;;;16.76;100.00;99358.22;7393733;19;20018;-84
2023/08/12 04:17:17;;;;;;;2.53;0.38;;;;;;;15.22;100.00;99377.94;7391885;19;20026;-85
2023/08/12 04:19:43;;;;;;;0.50;0.47;;;;;;;15.51;100.00;99375.22;7390216;19;20019;-84
2023/08/12 04:22:09;;;;;;;0.30;0.28;;;;;;;15.22;100.00;99375.91;7390554;19;20015;-84
2023/08/12 04:24:35;;;;;;;1.95;0.93;;;;;;;15.31;100.00;99372.03;7388271;19;20019;-83
2023/08/12 04:27:02;;;;;;;9.27;1.75;;;;;;;15.06;100.00;99369.13;7394151;19;20038;-84
2023/08/12 04:29:28;;;;;;;0.88;0.55;;;;;;;15.06;100.00;99374.72;7388851;19;20481;-84
2023/08/12 04:31:54;;;;;;;10.23;1.60;;;;;;;16.41;100.00;99359.88;7388722;19;20011;-83
2023/08/12 04:34:20;;;;;;;1.48;0.45;;;;;;;15.23;100.00;99365.44;7387519;19;20036;-84
2023/08/12 04:36:46;;;;;;;0.50;0.50;;;;;;;15.05;100.00;99367.56;7388961;19;20015;-84
2023/08/12 04:39:12;;;;;;;1.05;0.38;;;;;;;14.99;100.00;99358.44;7395695;19;20023;-84
2023/08/12 04:41:39;;;;;;;0.90;0.52;;;;;;;14.99;100.00;99366.84;7389781;19;20435;-84
2023/08/12 04:44:05;;;;;;;4.68;0.82;;;;;;;14.96;100.00;99362.28;7389101;19;20015;-84
2023/08/12 04:46:31;;;;;;;1.00;0.50;;;;;;;15.00;100.00;99364.81;7389196;19;20063;-84
2023/08/12 04:48:58;;;;;;;2.15;0.55;;;;;;;15.04;100.00;99360.47;7386446;19;20029;-83
2023/08/12 04:51:24;;;;;;;5.15;1.05;;;;;;;15.01;100.00;99353.06;7388669;19;20074;-85
2023/08/12 04:53:50;;;;;;;6.72;1.60;;;;;;;15.07;100.00;99356.59;7386583;19;20469;-84
2023/08/12 04:56:17;;;;;;;3.25;0.70;;;;;;;14.88;100.00;99346.50;7390788;19;20015;-83
2023/08/12 04:58:45;;;;;;;0.90;0.22;;;;;;;14.91;100.00;99343.44;7388593;19;20011;-83
2023/08/12 05:01:11;;;;;;;0.10;0.10;;;;;;;16.03;100.00;99338.53;7387917;19;20014;-83
2023/08/12 05:03:38;;;;;;;0.30;0.28;;;;;;;15.55;100.00;99346.91;7387251;19;20010;-83
2023/08/12 05:06:04;;;;;;;3.80;0.43;;;;;;;15.37;100.00;99344.69;7389638;19;20006;-84
2023/08/12 05:08:32;;;;;;;0.55;0.50;;;;;;;15.37;100.00;99350.31;7388114;19;20019;-83
2023/08/12 05:10:58;;;;;;;0.73;0.73;;;;;;;15.26;100.00;99347.56;7387823;19;20036;-83
2023/08/12 05:13:24;;;;;;;3.45;1.33;;;;;;;15.23;100.00;99343.75;7391438;19;20019;-83
2023/08/12 05:15:50;;;;;;;1.58;0.20;;;;;;;15.42;100.00;99344.66;7389308;19;20023;-84
2023/08/12 05:18:18;;;;;;;0.20;0.20;;;;;;;15.07;100.00;99348.19;7388344;19;20476;-84
2023/08/12 05:20:44;;;;;;;0.47;0.40;;;;;;;15.10;100.00;99352.78;7388165;19;20052;-85
2023/08/12 05:23:10;;;;;;;0.32;0.32;;;;;;;15.10;100.00;99358.38;7386453;19;20479;-84
2023/08/12 05:25:39;;;;;;;3.53;0.30;;;;;;;15.12;100.00;99353.00;7387767;19;20022;-83
2023/08/12 05:28:05;;;;;;;0.22;0.22;;;;;;;16.00;100.00;99342.41;7385628;19;20035;-83
2023/08/12 05:30:31;;;;;;;0.45;0.17;;;;;;;15.84;100.00;99346.13;7388201;19;20064;-82
2023/08/12 05:32:57;;;;;;;3.40;0.47;;;;;;;15.53;100.00;99350.22;7387144;19;20057;-82
2023/08/12 05:35:24;;;;;;;0.95;0.95;;;;;;;15.41;100.00;99353.59;7393232;19;20111;-82
2023/08/12 05:37:50;;;;;;;0.35;0.20;;;;;;;15.34;100.00;99354.91;7395589;19;20057;-82
2023/08/12 05:40:16;;;;;;;7.15;0.63;;;;;;;15.32;100.00;99357.47;7397377;19;20010;-82
2023/08/12 05:42:42;;;;;;;2.47;0.63;;;;;;;15.35;100.00;99355.69;7396339;19;20018;-83
2023/08/12 05:45:09;;;;;;;2.10;0.55;;;;;;;15.38;100.00;99343.41;7398332;19;20056;-83
2023/08/12 05:47:35;;;;;;;0.55;0.20;;;;;;;15.39;100.00;99344.94;7393260;19;20011;-83
2023/08/12 05:50:01;;;;;;;1.13;0.75;;;;;;;15.37;100.00;99344.69;7396121;19;20026;-84
2023/08/12 05:52:27;;;;;;;0.65;0.60;;;;;;;15.38;100.00;99349.00;7395678;19;20022;-83
2023/08/12 05:54:53;;;;;;;3.88;0.70;;;;;;;15.36;100.00;99346.72;7397227;19;20014;-84
2023/08/12 05:57:19;;;;;;;1.17;0.45;;;;;;;15.35;100.00;99350.84;7397679;19;20481;-83
2023/08/12 05:59:45;;;;;;;2.15;0.30;;;;;;;15.33;100.00;99347.03;7393116;19;20517;-83
2023/08/12 06:02:11;;;;;;;4.78;1.02;;;;;;;15.35;100.00;99350.06;7397244;19;20479;-83
2023/08/12 06:04:38;;;;;;;1.20;0.35;;;;;;;15.32;100.00;99345.50;7393855;19;20011;-83
2023/08/12 06:07:04;;;;;;;0.88;0.77;;;;;;;15.32;100.00;99348.28;7393999;19;20097;-84
2023/08/12 06:09:30;;;;;;;6.32;1.70;;;;;;;15.33;100.00;99341.41;7394656;19;20019;-84
2023/08/12 06:11:56;;;;;;;1.40;0.25;;;;;;;15.33;100.00;99330.19;7395481;19;20015;-84
2023/08/12 06:14:22;;;;;;;1.35;0.55;;;;;;;15.36;100.00;99331.94;7393636;19;20015;-84
2023/08/12 06:16:48;;;;;;;1.17;0.63;;;;;;;15.39;100.00;99333.72;7393420;19;20018;-85
2023/08/12 06:19:14;;;;;;;4.13;0.57;;;;;;;15.46;100.00;99327.56;7396501;19;20082;-84
2023/08/12 06:21:40;;;;;;;1.30;0.50;;;;;;;15.46;100.00;99322.72;7399369;19;20019;-85
2023/08/12 06:24:07;;;;;;;3.75;0.47;;;;;;;15.43;100.00;99328.56;7392354;19;20126;-84
2023/08/12 06:26:33;;;;;;;0.40;0.10;;;;;;;15.39;100.00;99336.50;7396670;19;20354;-84
2023/08/12 06:28:59;;;;;;;4.03;0.47;;;;;;;19.08;100.00;99326.03;7392710;19;20572;-84
2023/08/12 06:31:25;;;;;;;1.95;0.52;;;;;;;20.31;100.00;99327.44;7392310;19;20586;-85
2023/08/12 06:33:51;;;;;;;2.42;0.68;;;;;;;20.21;100.00;99324.34;7391682;19;20017;-84
2023/08/12 06:36:17;;;;;;;3.92;0.40;;;;;;;20.71;100.00;99319.34;7393729;19;20028;-85
2023/08/12 06:38:43;;;;;;;1.55;0.25;;;;;;;20.84;100.00;99319.97;7393096;19;20383;-85
2023/08/12 06:41:09;;;;;;;0.52;0.10;;;;;;;20.50;100.00;99327.16;7392178;19;20082;-84
2023/08/12 06:43:36;;;;;;;0.82;0.10;;;;;;;20.12;100.00;99332.56;7392185;19;20013;-84
2023/08/12 06:46:02;;;;;;;2.55;0.30;;;;;;;20.89;100.00;99330.41;7394521;19;20114;-84
2023/08/12 06:48:28;;;;;;;3.22;0.70;;;;;;;20.09;100.00;99328.00;7391381;19;20739;-83
2023/08/12 06:50:56;;;;;;;3.80;0.73;;;;;;;20.51;100.00;99326.59;7396068;19;20007;-83
2023/08/12 06:53:22;;;;;;;4.13;0.68;;;;;;;20.49;100.00;99320.00;7395309;19;20014;-83
2023/08/12 06:55:49;;;;;;;4.10;0.70;;;;;;;20.50;100.00;99316.59;7397784;19;20018;-82
2023/08/12 06:58:15;;;;;;;1.15;0.40;;;;;;;20.48;100.00;99318.47;7397954;19;20052;-83
2023/08/12 07:00:42;;;;;;;0.17;0.08;;;;;;;20.47;100.00;99329.03;7393031;19;20019;-83
2023/08/12 07:03:08;;;;;;;5.22;0.60;;;;;;;20.49;100.00;99325.66;7396561;19;20018;-83
2023/08/12 07:05:34;;;;;;;1.50;0.43;;;;;;;20.46;100.00;99324.69;7398640;19;20010;-83
2023/08/12 07:08:00;;;;;;;1.27;0.30;;;;;;;20.53;100.00;99331.72;7392581;19;20022;-83
2023/08/12 07:10:26;;;;;;;2.40;1.35;;;;;;;19.78;100.00;99324.16;7392737;19;20092;-82
2023/08/12 07:12:52;;;;;;;0.35;0.35;;;;;;;18.87;100.00;99322.41;7390264;19;20014;-82
2023/08/12 07:15:19;;;;;;;3.28;0.30;;;;;;;19.72;100.00;99319.97;7396274;19;20019;-82
2023/08/12 07:17:45;;;;;;;3.33;0.73;;;;;;;20.82;100.00;99314.13;7391823;19;20034;-83
2023/08/12 07:20:11;;;;;;;0.47;0.22;;;;;;;21.05;100.00;99320.66;7393607;19;20025;-83
2023/08/12 07:22:37;;;;;;;1.90;0.40;;;;;;;21.15;100.00;99323.72;7394100;19;20418;-83
2023/08/12 07:25:03;;;;;;;0.60;0.30;;;;;;;21.07;100.00;99318.00;7396512;19;20014;-82
2023/08/12 07:27:29;;;;;;;0.30;0.10;;;;;;;21.13;100.00;99315.78;7397445;19;20026;-83
2023/08/12 07:29:56;;;;;;;1.52;0.30;;;;;;;21.29;100.00;99316.56;7390628;19;20023;-83
2023/08/12 07:32:22;;;;;;;4.47;1.20;;;;;;;21.83;100.00;99309.69;7390277;19;20026;-83
2023/08/12 07:34:48;;;;;;;4.72;0.80;;;;;;;21.99;100.00;99307.59;7391429;19;20027;-82
2023/08/12 07:37:14;;;;;;;0.60;0.40;;;;;;;22.74;100.00;99312.41;7390528;19;20010;-83
2023/08/12 07:39:40;;;;;;;3.58;0.98;;;;;;;18.59;100.00;99314.53;7391659;19;20011;-83
2023/08/12 07:42:06;;;;;;;0.73;0.25;;;;;;;18.33;100.00;99302.47;7391545;19;20022;-83
2023/08/12 07:44:33;;;;;;;0.30;0.20;;;;;;;18.17;100.00;99309.94;7393064;19;20006;-82
2023/08/12 07:46:59;;;;;;;3.45;0.57;;;;;;;18.57;100.00;99311.50;7390912;19;20457;-84
2023/08/12 07:49:25;;;;;;;0.15;0.13;;;;;;;18.99;100.00;99309.59;7388648;19;20014;-83
2023/08/12 07:51:51;;;;;;;3.55;0.98;;;;;;;18.66;100.00;99311.06;7391302;19;20029;-83
2023/08/12 07:54:17;;;;;;;4.97;0.65;;;;;;;17.45;100.00;99314.00;7391382;19;20084;-84
2023/08/12 07:56:43;;;;;;;1.55;0.40;;;;;;;17.39;100.00;99316.13;7395655;19;20477;-83
2023/08/12 07:59:10;;;;;;;0.90;0.50;;;;;;;17.21;100.00;99326.16;7388580;19;20047;-84
2023/08/12 08:01:36;;;;;;;4.28;0.90;;;;;;;17.08;100.00;99314.06;7393623;19;20021;-83
2023/08/12 08:04:02;;;;;;;1.55;0.65;;;;;;;17.36;100.00;99320.03;7391095;19;20525;-83
2023/08/12 08:06:28;;;;;;;1.15;0.40;;;;;;;16.83;100.00;99309.81;7394122;19;20078;-82
2023/08/12 08:08:55;;;;;;;0.50;0.30;;;;;;;16.76;100.00;99310.41;7389959;19;20022;-83
2023/08/12 08:11:24;;;;;;;1.05;0.17;;;;;;;16.68;100.00;99311.00;7389447;19;20014;-83
2023/08/12 08:13:50;;;;;;;0.65;0.40;;;;;;;17.01;100.00;99303.41;7389624;19;20014;-82
2023/08/12 08:16:16;;;;;;;1.00;0.93;;;;;;;16.93;100.00;99308.13;7392700;19;20385;-83
2023/08/12 08:18:42;;;;;;;1.95;0.47;;;;;;;16.77;100.00;99304.25;7392929;19;20007;-83
2023/08/12 08:21:08;;;;;;;9.52;1.23;;;;;;;16.69;100.00;99311.78;7390410;19;20041;-84
2023/08/12 08:23:35;;;;;;;2.95;1.38;;;;;;;16.78;100.00;99302.22;7390330;19;20025;-83
2023/08/12 08:26:01;;;;;;;7.85;1.98;;;;;;;16.74;100.00;99307.38;7390869;19;20014;-84
2023/08/12 08:28:27;;;;;;;7.22;1.75;;;;;;;16.71;100.00;99300.00;7389867;19;20021;-84
2023/08/12 08:30:53;;;;;;;2.03;0.70;;;;;;;16.99;100.00;99300.38;7389793;19;20014;-83
2023/08/12 08:33:20;;;;;;;0.65;0.25;;;;;;;17.19;100.00;99299.84;7386991;19;20027;-84
2023/08/12 08:35:46;;;;;;;8.52;0.65;;;;;;;17.31;100.00;99298.34;7388468;19;20011;-84
2023/08/12 08:38:12;;;;;;;3.00;0.85;;;;;;;17.42;100.00;99292.56;7389530;19;20023;-84
2023/08/12 08:40:38;;;;;;;2.28;0.50;;;;;;;17.08;100.00;99292.31;7392009;19;20018;-84
2023/08/12 08:43:07;;;;;;;0.10;0.08;;;;;;;17.19;100.00;99285.75;7389903;19;20014;-84
2023/08/12 08:45:33;;;;;;;6.25;0.25;;;;;;;17.37;100.00;99285.72;7396344;19;20023;-83
2023/08/12 08:48:01;;;;;;;9.80;0.73;;;;;;;17.37;100.00;99284.94;7389589;19;20026;-82
2023/08/12 08:50:29;;;;;;;0.40;0.40;;;;;;;17.45;100.00;99292.22;7389007;19;20493;-82
2023/08/12 08:52:56;;;;;;;1.73;0.82;;;;;;;17.38;100.00;99287.25;7389840;19;20021;-82
2023/08/12 08:55:23;;;;;;;4.03;0.43;;;;;;;17.48;100.00;99279.13;7391290;19;20037;-82
2023/08/12 08:57:50;;;;;;;0.68;0.20;;;;;;;17.29;100.00;99275.63;7391278;19;20025;-83
2023/08/12 09:00:17;;;;;;;9.52;0.80;;;;;;;17.22;100.00;99277.00;7388533;19;20023;-82
2023/08/12 09:02:46;;;;;;;1.90;0.38;;;;;;;17.16;100.00;99269.94;7387693;19;20560;-82
2023/08/12 09:05:14;;;;;;;0.30;0.25;;;;;;;17.28;100.00;99277.66;7391454;19;20038;-82
2023/08/12 09:07:42;;;;;;;0.38;0.20;;;;;;;17.30;100.00;99282.78;7387888;19;20369;-83
2023/08/12 09:10:10;;;;;;;0.20;0.13;;;;;;;17.39;100.00;99279.53;7389523;19;20015;-82
2023/08/12 09:12:36;;;;;;;1.55;0.57;;;;;;;17.24;100.00;99277.22;7395725;19;20078;-82
2023/08/12 09:15:06;;;;;;;0.65;0.22;;;;;;;17.16;100.00;99278.38;7398973;19;20018;-81
2023/08/12 09:17:33;;;;;;;3.47;0.75;;;;;;;17.24;100.00;99279.28;7397792;19;20018;-82
2023/08/12 09:19:59;;;;;;;0.47;0.40;;;;;;;17.66;100.00;99277.59;7395555;19;20437;-83
2023/08/12 09:22:26;;;;;;;6.15;0.77;;;;;;;17.74;100.00;99273.59;7397018;19;20027;-83
2023/08/12 09:24:58;;;;;;;1.55;0.60;;;;;;;17.88;100.00;99272.34;7396948;19;20029;-82
2023/08/12 09:27:24;;;;;;;3.53;0.52;;;;;;;18.10;100.00;99254.25;7400446;19;20051;-83
2023/08/12 09:29:56;;;;;;;0.60;0.50;;;;;;;18.40;100.00;99254.66;7396571;19;20026;-82
2023/08/12 09:32:22;;;;;;;4.38;0.52;;;;;;;18.63;100.00;99260.59;7395497;19;20077;-82
2023/08/12 09:34:53;;;;;;;5.65;0.25;;;;;;;19.06;100.00;99260.91;7396414;19;20512;-82
2023/08/12 09:37:20;;;;;;;;;;;;;;;19.40;100.00;99261.69;7397754;19;20023;-82
2023/08/12 09:39:51;;;;;;;2.13;0.43;;;;;;;19.84;100.00;99256.22;7397191;19;19923;-82
2023/08/12 09:42:17;;;;;;;9.70;0.85;;;;;;;20.01;100.00;99248.03;7396593;19;20015;-82
2023/08/12 09:44:44;;;;;;;1.55;0.47;;;;;;;20.06;100.00;99261.25;7396348;19;20359;-82
2023/08/12 09:47:11;;;;;;;1.77;0.10;;;;;;;20.06;100.00;99255.59;7394948;19;20038;-83
2023/08/12 09:49:38;;;;;;;0.20;0.10;;;;;;;20.08;100.00;99259.38;7395109;19;20350;-82
2023/08/12 09:52:06;;;;;;;4.95;0.45;;;;;;;20.27;100.00;99259.91;7395969;19;20078;-80
2023/08/12 09:54:33;;;;;;;1.65;0.10;;;;;;;20.45;100.00;99260.94;7396657;19;20094;-83
2023/08/12 09:57:01;;;;;;;0.43;0.20;;;;;;;20.33;100.00;99254.09;7398804;19;20010;-82
2023/08/12 09:59:32;;;;;;;1.38;0.20;;;;;;;20.29;100.00;99257.25;7395494;19;20540;-83
2023/08/12 10:01:59;;;;;;;0.20;0.10;;;;;;;20.44;100.00;99245.28;7393647;19;20018;-82
2023/08/12 10:04:29;;;;;;;4.05;0.30;;;;;;;20.56;100.00;99252.13;7395934;19;20053;-83
2023/08/12 10:06:55;;;;;;;1.40;0.10;;;;;;;20.36;100.00;99255.78;7395606;19;20090;-82
2023/08/12 10:09:23;;;;;;;0.68;0.10;;;;;;;20.13;100.00;99255.66;7391679;19;20078;-84
2023/08/12 10:11:50;;;;;;;2.30;0.20;;;;;;;19.90;100.00;99246.28;7395412;19;20070;-82
2023/08/12 10:14:16;;;;;;;1.33;0.20;;;;;;;19.43;100.00;99252.09;7395150;19;20498;-83
2023/08/12 10:16:46;;;;;;;0.65;0.20;;;;;;;19.19;100.00;99252.41;7395345;19;20374;-82
2023/08/12 10:19:15;;;;;;;0.57;0.47;;;;;;;19.15;100.00;99254.81;7394570;19;20045;-84
2023/08/12 10:21:43;;;;;;;0.20;0.10;;;;;;;19.23;100.00;99255.63;7395108;19;20042;-83
2023/08/12 10:24:11;;;;;;;0.10;0.00;;;;;;;19.19;100.00;99262.97;7392796;19;20035;-84
2023/08/12 10:26:39;;;;;;;9.02;0.30;;;;;;;19.17;100.00;99271.19;7397298;19;20473;-84
2023/08/12 10:29:06;;;;;;;0.08;0.00;;;;;;;19.28;100.00;99268.88;7392940;19;20015;-83
2023/08/12 10:31:32;;;;;;;1.35;0.20;;;;;;;19.08;100.00;99266.03;7395165;19;20014;-84
2023/08/12 10:33:58;;;;;;;5.93;1.00;;;;;;;18.89;100.00;99272.59;7395338;19;20039;-84
2023/08/12 10:36:26;;;;;;;2.28;0.38;;;;;;;18.76;100.00;99271.88;7393578;19;20019;-83
2023/08/12 10:38:53;;;;;;;0.70;0.52;;;;;;;18.64;100.00;99256.50;7394677;19;20045;-83
2023/08/12 10:41:21;;;;;;;0.13;0.10;;;;;;;19.06;100.00;99257.34;7394820;19;20090;-84
2023/08/12 10:44:01;;;;;;;3.78;0.20;;;;;;;25.05;100.00;99252.66;7394636;19;20053;-83
2023/08/12 10:46:35;;;;;;;2.00;0.28;;;;;;;22.49;100.00;99259.09;7396013;19;20015;-83
2023/08/12 10:49:05;;;;;;;1.25;0.15;;;;;;;24.58;100.00;99248.09;7391619;19;20336;-83
2023/08/12 10:51:40;;;;;;;2.53;0.30;;;;;;;19.89;100.00;99252.47;7394912;19;20022;-83
2023/08/12 10:54:33;;;;;;;1.42;0.32;;;;;;;19.15;100.00;99243.50;7394046;19;20086;-83
2023/08/12 10:57:03;;;;;;;0.20;0.15;;;;;;;19.05;100.00;99234.03;7397609;19;20046;-83
2023/08/12 10:59:50;;;;;;;1.25;0.32;;;;;;;19.31;100.00;99239.53;7394272;19;20349;-83
2023/08/12 11:02:25;;;;;;;3.30;0.20;;;;;;;19.19;100.00;99238.28;7393143;19;20090;-84
2023/08/12 11:04:54;;;;;;;2.70;0.40;;;;;;;19.59;100.00;99244.50;7391802;19;20018;-83
2023/08/12 11:07:41;;;;;;;0.10;0.10;;;;;;;20.24;100.00;99260.25;7393022;19;20066;-84
2023/08/12 11:10:21;;;;;;;0.20;0.17;;;;;;;20.05;100.00;99248.44;7394639;19;20017;-86
2023/08/12 11:12:56;;;;;;;0.10;0.00;;;;;;;20.07;100.00;99245.81;7393103;19;20038;-84
2023/08/12 11:15:36;;;;;;;1.05;0.17;;;;;;;20.48;100.00;99245.69;7396617;19;20402;-83
2023/08/12 11:18:12;;;;;;;0.55;0.55;;;;;;;22.53;100.00;99247.34;7394051;19;20732;-84
2023/08/12 11:20:38;;;;;;;0.40;0.40;;;;;;;20.32;100.00;99244.09;7393691;19;20070;-84
2023/08/12 11:23:07;;;;;;;0.10;0.00;;;;;;;19.74;100.00;99269.31;7392643;19;20022;-83
2023/08/12 11:25:35;;;;;;;0.10;0.00;;;;;;;19.34;100.00;99265.94;7396849;19;20047;-83
2023/08/12 11:28:06;;;;;;;2.83;0.32;;;;;;;20.64;100.00;99264.22;7388535;19;20006;-84